createdAt,value
2022-08-22T00:00:45.015Z,99.90
2022-08-22T00:02:43.674Z,99.90
2022-08-22T00:03:08.735Z,99.90
2022-08-22T00:03:29.856Z,99.90
2022-08-22T00:06:15.403Z,99.90
2022-08-22T00:09:04.213Z,99.90
2022-08-22T00:11:48.927Z,99.90
2022-08-22T00:14:32.446Z,99.90
2022-08-22T00:17:14.476Z,99.90
2022-08-22T00:19:53.612Z,99.90
2022-08-22T00:22:36.955Z,99.90
2022-08-22T00:25:36.446Z,99.90
2022-08-22T00:28:15.008Z,99.90
2022-08-22T00:30:54.420Z,99.90
2022-08-22T00:33:36.478Z,99.90
2022-08-22T00:36:17.816Z,99.90
2022-08-22T00:39:00.296Z,99.90
2022-08-22T00:42:04.455Z,99.90
2022-08-22T00:45:13.185Z,99.90
2022-08-22T00:48:04.762Z,99.90
2022-08-22T00:51:29.350Z,99.90
2022-08-22T00:54:17.360Z,99.90
2022-08-22T00:57:27.674Z,99.90
2022-08-22T01:00:12.907Z,99.90
2022-08-22T01:03:18.287Z,99.90
2022-08-22T01:06:08.278Z,99.90
2022-08-22T01:09:04.125Z,99.90
2022-08-22T01:12:02.890Z,99.90
2022-08-22T01:14:45.733Z,99.90
2022-08-22T01:18:03.388Z,99.90
2022-08-22T01:21:43.952Z,99.90
2022-08-22T01:25:33.861Z,99.90
2022-08-22T01:29:03.319Z,99.90
2022-08-22T01:32:15.683Z,99.90
2022-08-22T01:35:30.320Z,99.90
2022-08-22T01:38:45.608Z,99.90
2022-08-22T01:41:53.429Z,99.90
2022-08-22T01:44:50.964Z,99.90
2022-08-22T01:47:27.909Z,99.90
2022-08-22T01:50:14.394Z,99.90
2022-08-22T01:52:51.632Z,99.90
2022-08-22T01:55:34.255Z,99.90
2022-08-22T01:58:15.453Z,99.90
2022-08-22T02:01:25.933Z,99.90
2022-08-22T02:04:07.147Z,99.90
2022-08-22T02:06:47.149Z,99.90
2022-08-22T02:09:34.639Z,99.90
2022-08-22T02:12:30.416Z,99.90
2022-08-22T02:15:18.549Z,99.90
2022-08-22T02:18:12.592Z,99.90
2022-08-22T02:21:00.595Z,99.90
2022-08-22T02:23:45.790Z,99.90
2022-08-22T02:26:23.509Z,99.90
2022-08-22T02:29:01.267Z,99.90
2022-08-22T02:31:45.813Z,99.90
2022-08-22T02:34:35.508Z,99.90
2022-08-22T02:37:17.021Z,99.90
2022-08-22T02:39:54.852Z,99.90
2022-08-22T02:42:36.955Z,99.90
2022-08-22T02:45:30.287Z,99.90
2022-08-22T02:48:12.880Z,99.90
2022-08-22T02:50:57.121Z,99.90
2022-08-22T02:53:49.594Z,99.90
2022-08-22T02:56:28.025Z,99.90
2022-08-22T02:59:13.983Z,99.90
2022-08-22T03:01:46.646Z,99.90
2022-08-22T03:04:28.384Z,99.90
2022-08-22T03:07:16.140Z,99.90
2022-08-22T03:09:58.476Z,99.90
2022-08-22T03:12:34.448Z,99.90
2022-08-22T03:15:14.732Z,99.90
2022-08-22T03:17:55.895Z,99.90
2022-08-22T03:20:54.161Z,99.90
2022-08-22T03:23:37.749Z,99.90
2022-08-22T03:26:17.491Z,99.90
2022-08-22T03:28:59.602Z,99.90
2022-08-22T03:31:34.009Z,99.90
2022-08-22T03:34:23.015Z,99.90
2022-08-22T03:37:09.118Z,99.90
2022-08-22T03:39:54.469Z,99.90
2022-08-22T03:43:04.877Z,99.90
2022-08-22T03:46:35.069Z,99.90
2022-08-22T03:49:59.448Z,99.90
2022-08-22T03:53:22.016Z,99.90
2022-08-22T03:56:54.016Z,99.90
2022-08-22T04:00:11.483Z,99.90
2022-08-22T04:03:41.765Z,99.90
2022-08-22T04:07:03.633Z,99.90
2022-08-22T04:10:15.534Z,99.90
2022-08-22T04:13:29.885Z,99.90
2022-08-22T04:16:55.947Z,99.90
2022-08-22T04:20:08.044Z,99.90
2022-08-22T04:23:11.522Z,99.90
2022-08-22T04:25:46.152Z,99.90
2022-08-22T04:28:24.646Z,99.90
2022-08-22T04:31:05.145Z,99.90
2022-08-22T04:33:42.009Z,99.90
2022-08-22T04:36:22.027Z,99.90
2022-08-22T04:39:01.611Z,99.90
2022-08-22T04:41:48.399Z,99.90
2022-08-22T04:44:28.493Z,99.90
2022-08-22T04:47:04.894Z,99.90
2022-08-22T04:49:43.654Z,99.90
2022-08-22T04:52:29.503Z,99.90
2022-08-22T04:55:16.233Z,99.90
2022-08-22T04:57:58.487Z,99.90
2022-08-22T05:00:40.651Z,99.90
2022-08-22T05:03:18.220Z,99.90
2022-08-22T05:05:51.081Z,99.90
2022-08-22T05:08:27.132Z,99.90
2022-08-22T05:10:58.550Z,99.90
2022-08-22T05:13:33.623Z,99.90
2022-08-22T05:16:11.005Z,99.90
2022-08-22T05:18:49.168Z,99.90
2022-08-22T05:21:27.159Z,99.90
2022-08-22T05:24:04.399Z,99.90
2022-08-22T05:26:40.297Z,99.90
2022-08-22T05:29:14.776Z,99.90
2022-08-22T05:31:50.772Z,99.90
2022-08-22T05:34:25.093Z,99.90
2022-08-22T05:37:04.727Z,99.90
2022-08-22T05:39:42.948Z,99.90
2022-08-22T05:42:24.863Z,99.90
2022-08-22T05:44:55.533Z,99.90
2022-08-22T05:47:33.892Z,99.90
2022-08-22T05:50:09.632Z,99.90
2022-08-22T05:53:00.897Z,99.90
2022-08-22T05:55:38.641Z,99.90
2022-08-22T05:58:36.047Z,99.90
2022-08-22T06:01:23.341Z,99.90
2022-08-22T06:04:07.153Z,99.90
2022-08-22T06:06:44.329Z,99.90
2022-08-22T06:09:23.855Z,99.90
2022-08-22T06:12:02.276Z,98.20
2022-08-22T06:14:43.767Z,96.30
2022-08-22T06:17:19.586Z,97.60
2022-08-22T06:19:52.500Z,98.40
2022-08-22T06:22:27.274Z,96.30
2022-08-22T06:25:08.534Z,94.80
2022-08-22T06:27:38.759Z,96.90
2022-08-22T06:30:15.339Z,94.70
2022-08-22T06:32:59.944Z,89.90
2022-08-22T06:35:56.044Z,88.70
2022-08-22T06:38:33.629Z,90.70
2022-08-22T06:41:09.207Z,88.40
2022-08-22T06:43:43.845Z,82.50
2022-08-22T06:46:18.160Z,86.60
2022-08-22T06:48:49.569Z,83.10
2022-08-22T06:51:22.885Z,77.90
2022-08-22T06:53:59.087Z,74.80
2022-08-22T06:56:37.148Z,72.20
2022-08-22T06:59:14.077Z,67.30
2022-08-22T07:01:52.539Z,65.60
2022-08-22T07:04:27.192Z,61.80
2022-08-22T07:07:01.022Z,61.00
2022-08-22T07:09:36.097Z,58.90
2022-08-22T07:12:18.547Z,52.40
2022-08-22T07:14:52.700Z,48.30
2022-08-22T07:17:27.248Z,47.70
2022-08-22T07:20:01.440Z,44.70
2022-08-22T07:22:35.116Z,46.50
2022-08-22T07:25:12.755Z,46.80
2022-08-22T07:28:04.834Z,43.80
2022-08-22T07:30:54.717Z,42.00
2022-08-22T07:33:44.408Z,38.70
2022-08-22T07:36:33.062Z,37.40
2022-08-22T07:39:28.542Z,33.90
2022-08-22T07:42:14.770Z,35.10
2022-08-22T07:45:04.248Z,34.90
2022-08-22T07:47:59.600Z,30.60
2022-08-22T07:50:33.833Z,27.90
2022-08-22T07:53:18.637Z,25.80
2022-08-22T07:55:50.064Z,26.90
2022-08-22T07:58:22.879Z,26.20
2022-08-22T08:00:54.177Z,25.90
2022-08-22T08:03:27.520Z,25.60
2022-08-22T08:05:58.612Z,26.40
2022-08-22T08:08:42.245Z,25.00
2022-08-22T08:11:16.092Z,24.00
2022-08-22T08:13:54.070Z,23.70
2022-08-22T08:16:28.845Z,23.50
2022-08-22T08:19:03.079Z,22.60
2022-08-22T08:21:42.656Z,22.80
2022-08-22T08:24:20.936Z,22.30
2022-08-22T08:27:12.955Z,21.90
2022-08-22T08:29:54.692Z,20.70
2022-08-22T08:32:27.352Z,20.90
2022-08-22T08:34:57.716Z,17.10
2022-08-22T08:37:40.057Z,15.50
2022-08-22T08:40:48.510Z,15.10
2022-08-22T08:43:34.469Z,15.20
2022-08-22T08:47:10.675Z,12.40
2022-08-22T08:50:15.931Z,12.30
2022-08-22T08:53:32.601Z,10.90
2022-08-22T08:56:11.108Z,9.90
2022-08-22T08:58:52.640Z,10.10
2022-08-22T09:01:57.476Z,9.50
2022-08-22T09:05:09.561Z,10.20
2022-08-22T09:08:36.029Z,8.40
2022-08-22T09:11:49.251Z,7.50
2022-08-22T09:14:55.930Z,8.00
2022-08-22T09:18:23.804Z,7.90
2022-08-22T09:22:01.050Z,7.40
2022-08-22T09:25:23.604Z,7.70
2022-08-22T09:28:08.852Z,7.20
2022-08-22T09:31:16.935Z,6.60
2022-08-22T09:34:11.642Z,6.60
2022-08-22T09:37:08.059Z,6.30
2022-08-22T09:40:15.731Z,5.60
2022-08-22T09:43:04.533Z,5.70
2022-08-22T09:45:50.073Z,5.40
2022-08-22T09:48:49.807Z,4.70
2022-08-22T09:51:43.455Z,5.50
2022-08-22T09:54:31.496Z,5.60
2022-08-22T09:57:17.458Z,5.50
2022-08-22T10:00:17.886Z,5.20
2022-08-22T10:03:08.385Z,5.30
2022-08-22T10:05:48.082Z,4.20
2022-08-22T10:08:41.910Z,4.70
2022-08-22T10:11:31.576Z,5.10
2022-08-22T10:14:05.608Z,4.60
2022-08-22T10:17:08.984Z,4.10
2022-08-22T10:19:44.686Z,4.60
2022-08-22T10:22:40.517Z,4.80
2022-08-22T10:25:28.458Z,4.20
2022-08-22T10:28:16.014Z,3.60
2022-08-22T10:31:02.210Z,2.40
2022-08-22T10:33:41.751Z,2.70
2022-08-22T10:36:23.477Z,1.80
2022-08-22T10:38:59.310Z,1.00
2022-08-22T10:41:37.536Z,1.00
2022-08-22T10:44:17.520Z,1.00
2022-08-22T10:46:55.904Z,1.00
2022-08-22T10:49:35.740Z,1.00
2022-08-22T10:52:16.041Z,1.00
2022-08-22T10:54:52.855Z,1.00
2022-08-22T10:57:52.697Z,1.00
2022-08-22T11:00:46.050Z,1.00
2022-08-22T11:03:25.066Z,1.00
2022-08-22T11:06:00.823Z,1.00
2022-08-22T11:08:57.799Z,1.00
2022-08-22T11:11:47.557Z,1.00
2022-08-22T11:15:04.471Z,1.00
2022-08-22T11:18:23.212Z,1.00
2022-08-22T11:21:03.574Z,1.00
2022-08-22T11:24:00.512Z,1.00
2022-08-22T11:26:47.141Z,1.00
2022-08-22T11:29:44.205Z,1.00
2022-08-22T11:32:25.206Z,1.00
2022-08-22T11:35:04.538Z,1.00
2022-08-22T11:37:56.418Z,1.00
2022-08-22T11:40:39.275Z,1.00
2022-08-22T11:43:33.660Z,1.00
2022-08-22T11:46:19.907Z,1.00
2022-08-22T11:49:25.577Z,1.00
2022-08-22T11:52:38.389Z,1.00
2022-08-22T11:55:32.527Z,1.00
2022-08-22T11:58:28.891Z,1.00
2022-08-22T12:01:04.517Z,1.00
2022-08-22T12:04:09.756Z,1.00
2022-08-22T12:07:02.939Z,1.00
2022-08-22T12:09:55.252Z,1.00
2022-08-22T12:12:48.821Z,1.00
2022-08-22T12:15:24.603Z,1.00
2022-08-22T12:18:34.840Z,1.00
2022-08-22T12:21:56.549Z,1.00
2022-08-22T12:24:48.021Z,1.00
2022-08-22T12:27:55.298Z,1.00
2022-08-22T12:30:38.403Z,1.00
2022-08-22T12:33:43.873Z,1.00
2022-08-22T12:37:01.837Z,1.00
2022-08-22T12:40:02.774Z,1.00
2022-08-22T12:43:03.693Z,1.00
2022-08-22T12:46:06.973Z,1.00
2022-08-22T12:49:12.394Z,1.00
2022-08-22T12:52:04.310Z,1.00
2022-08-22T12:55:24.913Z,1.00
2022-08-22T12:58:11.668Z,1.00
2022-08-22T13:00:45.160Z,1.00
2022-08-22T13:03:25.599Z,1.00
2022-08-22T13:06:00.383Z,1.00
2022-08-22T13:08:37.076Z,1.00
2022-08-22T13:11:22.670Z,1.00
2022-08-22T13:14:02.621Z,1.00
2022-08-22T13:16:51.073Z,1.00
2022-08-22T13:19:25.463Z,1.00
2022-08-22T13:22:01.291Z,1.00
2022-08-22T13:24:52.574Z,1.00
2022-08-22T13:27:26.902Z,1.00
2022-08-22T13:30:05.831Z,1.00
2022-08-22T13:32:46.110Z,1.00
2022-08-22T13:35:28.635Z,1.00
2022-08-22T13:38:12.194Z,1.00
2022-08-22T13:40:50.510Z,1.00
2022-08-22T13:43:25.556Z,1.00
2022-08-22T13:46:02.146Z,1.00
2022-08-22T13:49:01.378Z,1.00
2022-08-22T13:51:41.334Z,1.00
2022-08-22T13:54:40.229Z,1.00
2022-08-22T13:57:19.201Z,1.00
2022-08-22T14:00:06.481Z,1.00
2022-08-22T14:02:58.321Z,1.00
2022-08-22T14:05:34.442Z,1.00
2022-08-22T14:08:18.512Z,1.00
2022-08-22T14:11:01.404Z,1.00
2022-08-22T14:13:48.924Z,1.00
2022-08-22T14:16:27.223Z,1.00
2022-08-22T14:19:06.954Z,1.00
2022-08-22T14:21:48.512Z,1.00
2022-08-22T14:24:25.822Z,1.00
2022-08-22T14:27:05.581Z,1.00
2022-08-22T14:29:45.854Z,1.00
2022-08-22T14:32:44.796Z,1.00
2022-08-22T14:35:29.225Z,1.00
2022-08-22T14:38:27.346Z,1.00
2022-08-22T14:41:05.948Z,1.00
2022-08-22T14:43:58.796Z,1.00
2022-08-22T14:46:43.110Z,1.00
2022-08-22T14:49:29.442Z,1.00
2022-08-22T14:52:10.365Z,1.00
2022-08-22T14:54:50.922Z,1.00
2022-08-22T14:57:21.219Z,1.00
2022-08-22T14:59:53.878Z,1.00
2022-08-22T15:02:29.786Z,1.00
2022-08-22T15:05:13.306Z,1.00
2022-08-22T15:07:44.536Z,1.00
2022-08-22T15:10:28.082Z,1.00
2022-08-22T15:13:04.477Z,1.00
2022-08-22T15:15:53.397Z,1.00
2022-08-22T15:18:37.700Z,1.00
2022-08-22T15:21:13.288Z,1.00
2022-08-22T15:23:46.778Z,1.00
2022-08-22T15:26:27.008Z,1.00
2022-08-22T15:29:11.334Z,1.00
2022-08-22T15:31:44.905Z,1.00
2022-08-22T15:34:25.728Z,1.00
2022-08-22T15:37:27.202Z,1.00
2022-08-22T15:40:12.662Z,1.00
2022-08-22T15:42:47.100Z,1.00
2022-08-22T15:45:33.959Z,1.00
2022-08-22T15:48:08.898Z,1.00
2022-08-22T15:50:43.090Z,1.00
2022-08-22T15:53:24.124Z,1.00
2022-08-22T15:56:29.098Z,1.00
2022-08-22T15:59:48.093Z,1.00
2022-08-22T16:02:35.060Z,1.00
2022-08-22T16:05:26.482Z,1.00
2022-08-22T16:08:06.435Z,1.00
2022-08-22T16:10:41.288Z,1.00
2022-08-22T16:13:34.552Z,1.00
2022-08-22T16:16:13.651Z,1.00
2022-08-22T16:19:19.553Z,1.00
2022-08-22T16:22:13.326Z,1.00
2022-08-22T16:25:10.878Z,1.60
2022-08-22T16:27:56.687Z,2.00
2022-08-22T16:30:40.367Z,2.40
2022-08-22T16:33:17.948Z,2.60
2022-08-22T16:36:17.494Z,2.90
2022-08-22T16:38:52.359Z,2.80
2022-08-22T16:41:36.296Z,2.70
2022-08-22T16:44:35.529Z,2.90
2022-08-22T16:47:19.547Z,2.60
2022-08-22T16:50:09.853Z,2.90
2022-08-22T16:52:57.000Z,2.90
2022-08-22T16:55:51.180Z,3.30
2022-08-22T16:59:23.765Z,3.60
2022-08-22T17:02:46.192Z,3.70
2022-08-22T17:05:42.457Z,3.80
2022-08-22T17:08:54.641Z,4.00
2022-08-22T17:11:40.608Z,4.10
2022-08-22T17:14:29.954Z,4.30
2022-08-22T17:17:33.427Z,4.40
2022-08-22T17:20:21.451Z,4.60
2022-08-22T17:23:00.270Z,4.90
2022-08-22T17:25:37.777Z,4.80
2022-08-22T17:28:21.102Z,4.70
2022-08-22T17:31:25.763Z,5.10
2022-08-22T17:34:18.126Z,5.30
2022-08-22T17:37:03.948Z,5.60
2022-08-22T17:40:11.532Z,5.90
2022-08-22T17:43:02.802Z,6.30
2022-08-22T17:45:48.884Z,6.80
2022-08-22T17:48:25.964Z,7.20
2022-08-22T17:51:04.694Z,8.10
2022-08-22T17:53:42.969Z,7.90
2022-08-22T17:56:24.182Z,8.50
2022-08-22T17:59:04.708Z,8.80
2022-08-22T18:01:58.129Z,9.50
2022-08-22T18:04:47.475Z,10.60
2022-08-22T18:07:34.804Z,11.40
2022-08-22T18:10:14.731Z,12.20
2022-08-22T18:12:58.692Z,13.00
2022-08-22T18:15:40.268Z,13.40
2022-08-22T18:18:29.539Z,14.30
2022-08-22T18:21:07.883Z,15.20
2022-08-22T18:23:44.043Z,16.10
2022-08-22T18:26:27.695Z,16.80
2022-08-22T18:29:09.935Z,17.70
2022-08-22T18:31:50.567Z,18.60
2022-08-22T18:34:36.618Z,18.70
2022-08-22T18:37:47.747Z,19.50
2022-08-22T18:40:35.216Z,20.50
2022-08-22T18:43:17.872Z,21.10
2022-08-22T18:46:04.067Z,22.20
2022-08-22T18:49:11.704Z,23.70
2022-08-22T18:51:38.221Z,25.00
2022-08-22T18:54:38.894Z,26.70
2022-08-22T18:57:40.305Z,29.10
2022-08-22T19:00:17.093Z,1.00
2022-08-22T19:03:36.182Z,1.00
2022-08-22T19:06:48.364Z,1.00
2022-08-22T19:10:14.096Z,1.00
2022-08-22T19:13:18.493Z,1.00
2022-08-22T19:16:06.599Z,1.00
2022-08-22T19:18:45.784Z,1.00
2022-08-22T19:21:46.065Z,1.00
2022-08-22T19:25:19.277Z,99.90
2022-08-22T19:28:24.189Z,4.00
2022-08-22T19:31:22.812Z,71.60
2022-08-22T19:34:18.492Z,71.30
2022-08-22T19:37:32.210Z,71.40
2022-08-22T19:40:07.464Z,70.90
2022-08-22T19:42:40.471Z,72.50
2022-08-22T19:45:29.130Z,72.80
2022-08-22T19:48:14.071Z,70.50
2022-08-22T19:50:45.446Z,72.30
2022-08-22T19:53:41.527Z,74.60
2022-08-22T19:56:32.811Z,75.80
2022-08-22T19:59:20.842Z,76.90
2022-08-22T20:02:06.763Z,78.60
2022-08-22T20:05:24.392Z,80.90
2022-08-22T20:08:38.770Z,81.70
2022-08-22T20:11:32.626Z,84.10
2022-08-22T20:14:30.591Z,86.10
2022-08-22T20:17:14.303Z,85.50
2022-08-22T20:22:47.258Z,84.60
2022-08-22T20:25:42.527Z,85.70
2022-08-22T20:28:41.393Z,84.40
2022-08-22T20:31:23.541Z,83.60
2022-08-22T20:34:10.786Z,84.00
2022-08-22T20:36:46.023Z,84.10
2022-08-22T20:39:25.872Z,84.80
2022-08-22T20:42:04.762Z,85.40
2022-08-22T20:44:41.292Z,83.90
2022-08-22T20:47:21.325Z,84.40
2022-08-22T20:49:56.044Z,84.00
2022-08-22T20:52:31.468Z,84.90
2022-08-22T20:55:06.087Z,85.10
2022-08-22T20:57:47.711Z,85.70
2022-08-22T21:00:20.454Z,86.60
2022-08-22T21:02:58.622Z,88.60
2022-08-22T21:05:38.079Z,90.20
2022-08-22T21:08:13.821Z,90.80
2022-08-22T21:11:01.389Z,91.40
2022-08-22T21:13:36.376Z,92.30
2022-08-22T21:16:16.848Z,92.70
2022-08-22T21:18:49.765Z,93.00
2022-08-22T21:21:22.992Z,93.80
2022-08-22T21:23:59.949Z,94.50
2022-08-22T21:26:36.662Z,95.10
2022-08-22T21:29:21.012Z,95.50
2022-08-22T21:31:59.198Z,96.50
2022-08-22T21:34:42.527Z,97.10
2022-08-22T21:37:17.993Z,97.90
2022-08-22T21:39:51.417Z,98.30
2022-08-22T21:42:29.063Z,98.90
2022-08-22T21:45:03.749Z,99.30
2022-08-22T21:47:39.053Z,99.70
2022-08-22T21:50:38.098Z,99.90
2022-08-22T21:53:13.149Z,99.90
2022-08-22T21:55:47.133Z,99.90
2022-08-22T21:58:35.862Z,99.90
2022-08-22T22:01:31.966Z,99.90
2022-08-22T22:04:01.777Z,99.90
2022-08-22T22:06:31.488Z,99.90
2022-08-22T22:09:00.484Z,99.90
2022-08-22T22:11:29.567Z,99.90
2022-08-22T22:13:58.783Z,99.90
2022-08-22T22:16:30.355Z,99.90
2022-08-22T22:18:59.423Z,99.90
2022-08-22T22:21:28.730Z,99.90
2022-08-22T22:23:58.523Z,99.90
2022-08-22T22:26:28.841Z,99.90
2022-08-22T22:28:59.444Z,99.90
2022-08-22T22:31:30.103Z,99.90
2022-08-22T22:34:01.383Z,99.90
2022-08-22T22:36:30.819Z,99.90
2022-08-22T22:39:00.192Z,99.90
2022-08-22T22:41:29.308Z,99.90
2022-08-22T22:43:58.431Z,99.90
2022-08-22T22:46:29.372Z,99.90
2022-08-22T22:48:59.725Z,99.90
2022-08-22T22:51:29.077Z,99.90
2022-08-22T22:53:58.592Z,99.90
2022-08-22T22:56:27.677Z,99.90
2022-08-22T22:59:00.637Z,99.90
2022-08-22T23:01:31.548Z,99.90
2022-08-22T23:04:05.710Z,99.90
2022-08-22T23:06:36.096Z,99.90
2022-08-22T23:09:05.561Z,99.90
2022-08-22T23:11:34.542Z,99.90
2022-08-22T23:14:03.896Z,99.90
2022-08-22T23:16:37.261Z,99.90
2022-08-22T23:19:10.942Z,99.90
2022-08-22T23:21:42.266Z,99.90
2022-08-22T23:24:13.307Z,99.90
2022-08-22T23:26:42.566Z,99.90
2022-08-22T23:29:13.128Z,99.90
2022-08-22T23:32:00.269Z,99.90
2022-08-22T23:34:33.201Z,99.90
2022-08-22T23:37:06.468Z,99.90
2022-08-22T23:39:38.361Z,99.90
2022-08-22T23:42:09.963Z,99.90
2022-08-22T23:44:42.328Z,99.90
2022-08-22T23:47:15.104Z,99.90
2022-08-22T23:49:45.419Z,99.90
2022-08-22T23:52:15.657Z,99.90
2022-08-22T23:54:44.888Z,99.90
2022-08-22T23:57:14.076Z,99.90
2022-08-22T23:59:46.354Z,99.90
